Richmond, British Columbia

1:46 PM PDT on April 28, 2017 (GMT -0700)
Burkeville | | Change Station

Elev 6 ft 49.19 °N, 123.15 °W | Updated 16 seconds ago

Scattered Clouds
Scattered Clouds
54.3 °F
Feels Like 54.3 °F
N
5.0
Wind Variable Wind from SSW
Gusts 9.0 mph

Today
High -- | Low -- °F
--% Chance of Precip.
Yesterday
High -- | Low -- °F
Precip. -- in
Pressure 30.35 in
Visibility 30.0 miles
Clouds Few 3500 ft
Few 16000 ft
Scattered Clouds 24000 ft
Dew Point 42 °F
Humidity 64%
Rainfall 0.00 in
Snow Depth Not available.
5:55 AM 8:25 PM
Waxing Crescent, 8% visible
METAR CYVR 282000Z 25006KT 220V280 30SM FEW035 FEW160 SCT240 12/07 A3034 RMK CU1AC1CI1 SLP276
Pressure 30.35 in
Visibility 30.0 miles
Clouds Few 3500 ft
Few 16000 ft
Scattered Clouds 24000 ft
Dew Point 42 °F
Humidity 64%
Rainfall 0.00 in
Snow Depth Not available.
5:55 AM 8:25 PM
Waxing Crescent, 8% visible
METAR CYVR 282000Z 25006KT 220V280 30SM FEW035 FEW160 SCT240 12/07 A3034 RMK CU1AC1CI1 SLP276

Get Severe Weather Alerts

Thanks for signing up!

Be on the lookout for a verification email in your inbox.

You'll start receiving the daily forecast at 8 AM.

×

10-Day Weather Forecast

Almanac

Astronomy

Apr. 28, 2017 Rise Set
Actual Time
Civil Twilight
Nautical Twilight
Astronomical Twilight
Moon
Length of Visible Light
Length of Day
Tomorrow will be .
, % of the Moon is Illuminated

Today's Extremes

Country Highs Country Lows

Community

WunderPhotos

WunderBlog® & News

Nearby

Air Quality

  Air Quality AQ Index Pollutant
Not available.

Snow Depth

Station Depth Elevation

Earthquake Activity

City Distance Mag. Time & Date
Minimum magnitude displayed is 2.5.

Coastal Water Temperatures

Place Temperature

Stations

Nearby Weather Stations

Station Location Temp. Windchill Dew Point Humidity Wind Precip. Elev Updated Type
                   

Watches & Warnings

There are currently no watches in effect.